createdAt,value
2019-05-25T00:01:11.075Z,9.30
2019-05-25T00:03:41.118Z,10.33
2019-05-25T00:06:30.478Z,12.03
2019-05-25T00:09:00.729Z,8.20
2019-05-25T00:11:30.908Z,6.83
2019-05-25T00:14:01.562Z,7.10
2019-05-25T00:16:32.479Z,7.10
2019-05-25T00:19:02.675Z,7.60
2019-05-25T00:21:33.763Z,7.87
2019-05-25T00:24:12.176Z,7.83
2019-05-25T00:26:35.497Z,6.73
2019-05-25T00:31:53.831Z,6.57
2019-05-25T00:34:24.214Z,8.10
2019-05-25T00:36:54.429Z,7.13
2019-05-25T00:39:24.627Z,5.93
2019-05-25T00:41:54.698Z,6.60
2019-05-25T00:44:24.741Z,7.60
2019-05-25T00:46:55.091Z,7.93
2019-05-25T00:49:25.613Z,7.13
2019-05-25T00:51:56.112Z,6.90
2019-05-25T00:54:28.216Z,6.93
2019-05-25T00:56:57.984Z,7.33
2019-05-25T00:59:28.054Z,7.53
2019-05-25T01:01:58.736Z,7.00
2019-05-25T01:04:28.799Z,7.37
2019-05-25T01:06:58.851Z,8.90
2019-05-25T01:09:28.868Z,7.17
2019-05-25T01:11:59.322Z,7.37
2019-05-25T01:14:29.502Z,6.93
2019-05-25T01:16:59.674Z,6.70
2019-05-25T01:19:29.763Z,6.90
2019-05-25T01:22:00.291Z,7.60
2019-05-25T01:24:43.181Z,7.90
2019-05-25T01:27:02.896Z,7.53
2019-05-25T01:29:32.960Z,6.87
2019-05-25T01:32:03.092Z,7.47
2019-05-25T01:34:33.562Z,7.50
2019-05-25T01:37:03.648Z,7.00
2019-05-25T01:39:35.429Z,7.67
2019-05-25T01:42:06.417Z,7.57
2019-05-25T01:44:36.479Z,7.13
2019-05-25T01:47:06.666Z,7.27
2019-05-25T01:49:36.970Z,7.30
2019-05-25T01:52:07.007Z,7.30
2019-05-25T01:54:37.866Z,8.73
2019-05-25T01:57:08.030Z,7.60
2019-05-25T01:59:39.239Z,7.80
2019-05-25T02:02:09.240Z,7.90
2019-05-25T02:04:39.814Z,9.10
2019-05-25T02:07:09.925Z,8.23
2019-05-25T02:09:40.233Z,8.67
2019-05-25T02:12:10.345Z,8.33
2019-05-25T02:14:40.493Z,7.70
2019-05-25T02:17:10.632Z,7.20
2019-05-25T02:19:40.994Z,7.53
2019-05-25T02:22:11.230Z,7.90
2019-05-25T02:24:42.394Z,8.07
2019-05-25T02:27:12.490Z,7.70
2019-05-25T02:29:42.600Z,8.47
2019-05-25T02:32:35.898Z,7.90
2019-05-25T02:35:06.243Z,7.67
2019-05-25T02:37:36.234Z,7.87
2019-05-25T02:40:06.577Z,7.37
2019-05-25T02:42:36.677Z,8.33
2019-05-25T02:45:06.859Z,7.73
2019-05-25T02:47:37.008Z,8.40
2019-05-25T02:50:07.079Z,8.60
2019-05-25T02:52:37.192Z,7.10
2019-05-25T02:55:08.593Z,7.83
2019-05-25T02:57:39.223Z,7.43
2019-05-25T03:00:09.661Z,7.70
2019-05-25T03:02:39.734Z,7.30
2019-05-25T03:05:11.727Z,6.50
2019-05-25T03:07:41.876Z,8.07
2019-05-25T03:10:11.874Z,8.03
2019-05-25T03:12:42.067Z,8.00
2019-05-25T03:15:12.100Z,7.60
2019-05-25T03:17:42.123Z,9.60
2019-05-25T03:20:12.202Z,8.67
2019-05-25T03:22:42.253Z,9.40
2019-05-25T03:25:13.068Z,8.77
2019-05-25T03:27:43.059Z,9.37
2019-05-25T03:30:13.098Z,8.37
2019-05-25T03:32:43.206Z,9.57
2019-05-25T03:35:13.355Z,10.47
2019-05-25T03:37:43.446Z,9.60
2019-05-25T03:40:13.460Z,10.17
2019-05-25T03:42:43.867Z,9.30
2019-05-25T03:45:13.957Z,8.87
2019-05-25T03:47:44.002Z,9.50
2019-05-25T03:50:15.150Z,10.00
2019-05-25T03:52:45.289Z,10.20
2019-05-25T03:55:15.434Z,9.33
2019-05-25T03:57:45.773Z,8.50
2019-05-25T04:00:15.895Z,7.10
2019-05-25T04:02:46.466Z,8.73
2019-05-25T04:05:19.296Z,8.07
2019-05-25T04:07:49.475Z,9.20
2019-05-25T04:10:19.594Z,10.13
2019-05-25T04:12:50.076Z,10.60
2019-05-25T04:15:20.152Z,10.67
2019-05-25T04:17:50.767Z,10.70
2019-05-25T04:20:20.753Z,8.83
2019-05-25T04:22:50.901Z,7.07
2019-05-25T04:25:20.925Z,9.47
2019-05-25T04:27:52.089Z,11.90
2019-05-25T04:30:22.167Z,9.73
2019-05-25T04:32:52.382Z,11.60
2019-05-25T04:35:22.453Z,9.53
2019-05-25T04:37:52.919Z,10.40
2019-05-25T04:40:23.360Z,8.13
2019-05-25T04:42:53.527Z,9.23
2019-05-25T04:45:23.566Z,8.80
2019-05-25T04:47:53.605Z,9.73
2019-05-25T04:50:23.736Z,9.70
2019-05-25T04:52:54.095Z,9.27
2019-05-25T04:55:24.278Z,9.00
2019-05-25T04:57:54.856Z,8.60
2019-05-25T05:00:25.002Z,9.17
2019-05-25T05:02:55.173Z,7.60
2019-05-25T05:05:25.201Z,8.13
2019-05-25T05:08:44.695Z,7.23
2019-05-25T05:10:32.986Z,6.97
2019-05-25T05:13:03.283Z,6.93
2019-05-25T05:15:33.373Z,6.80
2019-05-25T05:18:03.468Z,7.43
2019-05-25T05:20:33.528Z,9.00
2019-05-25T05:23:03.568Z,7.63
2019-05-25T05:25:33.734Z,8.40
2019-05-25T05:28:03.931Z,7.33
2019-05-25T05:30:34.243Z,7.57
2019-05-25T05:33:04.416Z,7.77
2019-05-25T05:35:38.698Z,7.10
2019-05-25T05:38:07.319Z,6.93
2019-05-25T05:40:37.982Z,7.20
2019-05-25T05:43:10.548Z,7.93
2019-05-25T05:45:42.590Z,7.13
2019-05-25T05:48:13.737Z,5.90
2019-05-25T05:50:43.859Z,5.80
2019-05-25T05:53:13.907Z,6.07
2019-05-25T05:56:04.650Z,7.60
2019-05-25T05:58:34.791Z,7.93
2019-05-25T06:01:04.809Z,7.53
2019-05-25T06:03:35.187Z,15.63
2019-05-25T06:06:05.434Z,7.13
2019-05-25T06:08:35.841Z,6.37
2019-05-25T06:11:05.872Z,5.80
2019-05-25T06:13:35.964Z,5.67
2019-05-25T06:16:06.193Z,5.70
2019-05-25T06:18:37.352Z,6.00
2019-05-25T06:21:07.445Z,5.50
2019-05-25T06:23:49.294Z,5.33
2019-05-25T06:26:19.450Z,5.50
2019-05-25T06:28:49.506Z,5.17
2019-05-25T06:31:20.343Z,5.67
2019-05-25T06:34:02.656Z,5.63
2019-05-25T06:36:29.861Z,5.80
2019-05-25T06:39:00.068Z,5.77
2019-05-25T06:41:30.205Z,5.20
2019-05-25T06:44:00.264Z,6.13
2019-05-25T06:46:30.383Z,6.10
2019-05-25T06:49:02.435Z,5.30
2019-05-25T06:51:32.644Z,5.33
2019-05-25T06:54:02.828Z,5.40
2019-05-25T06:56:33.370Z,5.70
2019-05-25T06:59:03.431Z,5.73
2019-05-25T07:01:33.591Z,6.07
2019-05-25T07:04:03.607Z,5.17
2019-05-25T07:06:34.088Z,5.30
2019-05-25T07:09:04.961Z,4.80
2019-05-25T07:11:34.975Z,5.83
2019-05-25T07:14:05.381Z,5.83
2019-05-25T07:16:35.861Z,6.07
2019-05-25T07:19:05.908Z,6.20
2019-05-25T07:21:39.472Z,5.60
2019-05-25T07:24:09.619Z,5.43
2019-05-25T07:26:40.083Z,5.93
2019-05-25T07:29:10.508Z,6.80
2019-05-25T07:31:41.689Z,5.97
2019-05-25T07:34:11.860Z,6.93
2019-05-25T07:36:42.018Z,6.53
2019-05-25T07:39:13.423Z,6.60
2019-05-25T07:41:51.267Z,6.04
2019-05-25T07:44:21.367Z,5.87
2019-05-25T07:46:56.968Z,5.70
2019-05-25T07:49:27.180Z,5.43
2019-05-25T07:51:57.385Z,5.33
2019-05-25T07:54:32.865Z,5.73
2019-05-25T07:57:03.051Z,5.50
2019-05-25T07:59:34.211Z,5.00
2019-05-25T08:02:04.312Z,5.30
2019-05-25T08:04:36.549Z,5.67
2019-05-25T08:07:06.994Z,5.63
2019-05-25T08:09:37.110Z,5.37
2019-05-25T08:12:07.331Z,5.50
2019-05-25T08:14:37.407Z,5.40
2019-05-25T08:17:07.524Z,5.50
2019-05-25T08:19:37.946Z,5.80
2019-05-25T08:22:08.503Z,5.80
2019-05-25T08:24:38.636Z,6.07
2019-05-25T08:27:08.831Z,5.63
2019-05-25T08:29:39.648Z,5.10
2019-05-25T08:32:12.528Z,5.60
2019-05-25T08:34:43.522Z,5.37
2019-05-25T08:37:13.655Z,5.43
2019-05-25T08:39:45.571Z,5.57
2019-05-25T08:42:28.437Z,5.83
2019-05-25T08:44:50.959Z,5.57
2019-05-25T08:47:21.381Z,5.90
2019-05-25T08:52:51.954Z,5.40
2019-05-25T08:55:22.041Z,6.03
2019-05-25T08:57:52.142Z,5.43
2019-05-25T09:00:22.415Z,6.17
2019-05-25T09:02:52.529Z,6.23
2019-05-25T09:05:22.608Z,6.33
2019-05-25T09:07:52.780Z,5.27
2019-05-25T09:10:22.933Z,5.73
2019-05-25T09:12:53.371Z,5.90
2019-05-25T09:15:40.223Z,5.27
2019-05-25T09:18:10.267Z,5.27
2019-05-25T09:20:40.336Z,6.50
2019-05-25T09:23:10.410Z,5.47
2019-05-25T09:25:40.654Z,6.43
2019-05-25T09:28:11.120Z,12.50
2019-05-25T09:30:41.292Z,6.20
2019-05-25T09:33:12.554Z,6.00
2019-05-25T09:35:43.293Z,6.20
2019-05-25T09:38:14.610Z,6.17
2019-05-25T09:40:44.790Z,6.17
2019-05-25T09:43:15.046Z,5.50
2019-05-25T09:45:45.169Z,5.60
2019-05-25T09:48:15.334Z,5.43
2019-05-25T09:50:45.801Z,6.03
2019-05-25T09:53:15.942Z,5.93
2019-05-25T09:55:46.309Z,6.17
2019-05-25T09:58:16.755Z,5.60
2019-05-25T10:00:47.426Z,5.70
2019-05-25T10:03:17.913Z,5.70
2019-05-25T10:05:47.996Z,5.47
2019-05-25T10:08:18.085Z,5.50
2019-05-25T10:10:48.591Z,5.47
2019-05-25T10:13:18.721Z,5.53
2019-05-25T10:15:49.767Z,5.70
2019-05-25T10:18:19.880Z,5.40
2019-05-25T10:20:50.049Z,6.00
2019-05-25T10:23:20.318Z,5.57
2019-05-25T10:25:50.420Z,7.73
2019-05-25T10:28:20.708Z,6.73
2019-05-25T10:30:51.410Z,21.93
2019-05-25T10:33:21.964Z,7.17
2019-05-25T10:35:52.314Z,6.43
2019-05-25T10:38:22.376Z,6.10
2019-05-25T10:40:52.569Z,6.20
2019-05-25T10:43:22.727Z,6.77
2019-05-25T10:45:52.888Z,6.47
2019-05-25T10:48:23.331Z,6.90
2019-05-25T10:51:09.520Z,5.10
2019-05-25T10:53:40.297Z,4.80
2019-05-25T10:56:11.468Z,6.10
2019-05-25T10:58:41.431Z,5.23
2019-05-25T11:01:11.687Z,5.70
2019-05-25T11:03:41.871Z,7.07
2019-05-25T11:06:11.971Z,7.27
2019-05-25T11:08:42.011Z,7.13
2019-05-25T11:11:12.143Z,6.07
2019-05-25T11:13:43.092Z,5.87
2019-05-25T11:16:15.062Z,7.30
2019-05-25T11:19:12.575Z,8.07
2019-05-25T11:21:43.213Z,6.37
2019-05-25T11:24:13.981Z,7.57
2019-05-25T11:26:44.299Z,7.30
2019-05-25T11:29:14.551Z,8.80
2019-05-25T11:31:54.033Z,6.93
2019-05-25T11:34:16.647Z,7.07
2019-05-25T11:36:47.163Z,6.70
2019-05-25T11:39:17.379Z,5.33
2019-05-25T11:41:48.051Z,5.63
2019-05-25T11:44:18.230Z,4.67
2019-05-25T11:46:48.344Z,4.57
2019-05-25T11:49:22.397Z,4.50
2019-05-25T11:51:50.193Z,3.90
2019-05-25T11:54:20.329Z,4.20
2019-05-25T11:56:50.436Z,4.20
2019-05-25T11:59:20.493Z,4.07
2019-05-25T12:01:50.564Z,3.70
2019-05-25T12:04:20.785Z,3.90
2019-05-25T12:06:50.853Z,3.90
2019-05-25T12:09:21.212Z,4.30
2019-05-25T12:11:51.213Z,3.77
2019-05-25T12:14:22.295Z,4.20
2019-05-25T12:16:52.338Z,3.73
2019-05-25T12:19:22.504Z,4.33
2019-05-25T12:21:52.934Z,4.10
2019-05-25T12:24:23.014Z,4.00
2019-05-25T12:27:05.469Z,3.60
2019-05-25T12:29:34.133Z,3.97
2019-05-25T12:32:34.484Z,3.80
2019-05-25T12:35:04.803Z,3.60
2019-05-25T12:37:35.096Z,3.70
2019-05-25T12:40:05.699Z,5.63
2019-05-25T12:42:35.813Z,4.30
2019-05-25T12:45:06.256Z,3.50
2019-05-25T12:47:37.340Z,3.20
2019-05-25T12:50:07.877Z,3.53
2019-05-25T12:52:37.956Z,3.17
2019-05-25T12:55:08.458Z,3.40
2019-05-25T12:57:38.577Z,3.33
2019-05-25T13:00:15.691Z,2.83
2019-05-25T13:02:41.724Z,3.20
2019-05-25T13:05:12.137Z,3.60
2019-05-25T13:07:42.346Z,3.67
2019-05-25T13:10:12.585Z,3.60
2019-05-25T13:12:43.053Z,3.90
2019-05-25T13:15:13.268Z,3.30
2019-05-25T13:17:44.026Z,3.30
2019-05-25T13:20:14.086Z,5.50
2019-05-25T13:22:45.305Z,5.00
2019-05-25T13:25:15.817Z,4.40
2019-05-25T13:27:46.090Z,4.40
2019-05-25T13:30:18.297Z,4.10
2019-05-25T13:32:48.448Z,4.53
2019-05-25T13:35:18.630Z,4.23
2019-05-25T13:37:49.617Z,3.90
2019-05-25T13:40:19.816Z,4.00
2019-05-25T13:42:51.160Z,4.10
2019-05-25T13:45:21.294Z,4.00
2019-05-25T13:47:51.511Z,3.70
2019-05-25T13:50:21.845Z,3.90
2019-05-25T13:52:52.175Z,4.13
2019-05-25T13:55:22.376Z,3.30
2019-05-25T13:57:52.619Z,3.30
2019-05-25T14:00:22.700Z,3.40
2019-05-25T14:02:53.526Z,3.10
2019-05-25T14:05:23.820Z,3.00
2019-05-25T14:07:53.990Z,3.40
2019-05-25T14:10:24.259Z,2.93
2019-05-25T14:12:54.982Z,3.50
2019-05-25T14:15:25.171Z,2.83
2019-05-25T14:17:56.107Z,3.10
2019-05-25T14:20:26.624Z,2.90
2019-05-25T14:22:57.171Z,2.83
2019-05-25T14:25:27.553Z,3.03
2019-05-25T14:27:58.560Z,2.63
2019-05-25T14:30:29.241Z,2.97
2019-05-25T14:33:03.435Z,3.10
2019-05-25T14:35:40.847Z,2.60
2019-05-25T14:38:12.319Z,3.20
2019-05-25T14:40:45.333Z,3.20
2019-05-25T14:43:15.983Z,3.50
2019-05-25T14:45:47.536Z,4.10
2019-05-25T14:48:19.597Z,2.87
2019-05-25T14:50:50.210Z,3.87
2019-05-25T14:53:20.876Z,3.00
2019-05-25T14:55:50.968Z,3.27
2019-05-25T14:58:21.302Z,3.03
2019-05-25T15:00:51.762Z,7.17
2019-05-25T15:03:22.333Z,5.30
2019-05-25T15:05:52.749Z,3.80
2019-05-25T15:08:23.029Z,4.30
2019-05-25T15:10:53.145Z,4.23
2019-05-25T15:13:24.299Z,3.07
2019-05-25T15:15:54.432Z,2.40
2019-05-25T15:18:24.886Z,2.40
2019-05-25T15:20:56.008Z,2.40
2019-05-25T15:23:26.376Z,3.57
2019-05-25T15:26:03.158Z,2.40
2019-05-25T15:28:42.330Z,4.05
2019-05-25T15:31:12.545Z,5.83
2019-05-25T15:33:43.897Z,2.30
2019-05-25T15:36:14.502Z,2.67
2019-05-25T15:38:50.117Z,17.10
2019-05-25T15:41:20.332Z,2.70
2019-05-25T15:43:50.689Z,2.87
2019-05-25T15:46:21.185Z,3.83
2019-05-25T15:48:51.435Z,2.77
2019-05-25T15:51:21.594Z,2.33
2019-05-25T15:53:51.675Z,2.50
2019-05-25T15:56:22.365Z,2.30
2019-05-25T15:58:52.611Z,3.30
2019-05-25T16:01:22.701Z,2.37
2019-05-25T16:03:53.297Z,2.50
2019-05-25T16:06:24.050Z,3.00
2019-05-25T16:09:14.196Z,2.97
2019-05-25T16:11:44.524Z,3.43
2019-05-25T16:14:14.817Z,3.13
2019-05-25T16:16:45.069Z,2.30
2019-05-25T16:19:15.317Z,2.30
2019-05-25T16:21:45.263Z,2.60
2019-05-25T16:24:15.952Z,2.60
2019-05-25T16:26:46.690Z,2.47
2019-05-25T16:29:16.377Z,2.63
2019-05-25T16:31:45.910Z,4.37
2019-05-25T16:34:15.895Z,7.17
2019-05-25T16:36:45.820Z,3.03
2019-05-25T16:39:15.730Z,2.47
2019-05-25T16:41:45.381Z,3.13
2019-05-25T16:44:15.242Z,2.63
2019-05-25T16:46:44.787Z,2.30
2019-05-25T16:49:14.623Z,2.33
2019-05-25T16:51:44.238Z,2.33
2019-05-25T16:54:13.830Z,2.70
2019-05-25T16:56:43.444Z,2.30
2019-05-25T16:59:13.304Z,2.37
2019-05-25T17:01:48.142Z,2.20
2019-05-25T17:04:14.256Z,2.30
2019-05-25T17:06:45.309Z,2.86
2019-05-25T17:09:14.914Z,2.60
2019-05-25T17:11:44.919Z,2.40
2019-05-25T17:14:14.519Z,2.37
2019-05-25T17:16:44.124Z,2.02
2019-05-25T17:19:13.720Z,2.17
2019-05-25T17:21:43.248Z,2.27
2019-05-25T17:24:12.843Z,1.90
2019-05-25T17:26:42.562Z,3.17
2019-05-25T17:29:12.404Z,2.40
2019-05-25T17:31:42.378Z,1.97
2019-05-25T17:34:12.052Z,2.40
2019-05-25T17:36:42.626Z,2.30
2019-05-25T17:39:12.454Z,2.00
2019-05-25T17:41:42.134Z,3.47
2019-05-25T17:44:13.053Z,2.93
2019-05-25T17:46:43.655Z,2.57
2019-05-25T17:49:13.993Z,2.30
2019-05-25T17:51:43.800Z,2.27
2019-05-25T17:54:13.594Z,1.93
2019-05-25T17:56:43.179Z,1.97
2019-05-25T17:59:12.807Z,2.50
2019-05-25T18:01:42.532Z,3.43
2019-05-25T18:04:12.071Z,2.80
2019-05-25T18:06:41.749Z,2.70
2019-05-25T18:09:11.312Z,3.00
2019-05-25T18:11:41.318Z,2.77
2019-05-25T18:14:10.902Z,2.40
2019-05-25T18:16:40.479Z,2.40
2019-05-25T18:19:10.146Z,2.27
2019-05-25T18:21:39.734Z,2.40
2019-05-25T18:24:09.420Z,2.43
2019-05-25T18:26:39.063Z,2.50
2019-05-25T18:29:08.632Z,2.67
2019-05-25T18:31:38.318Z,2.73
2019-05-25T18:34:21.222Z,2.60
2019-05-25T18:36:39.131Z,2.00
2019-05-25T18:39:10.630Z,2.12
2019-05-25T18:41:40.290Z,2.30
2019-05-25T18:44:10.239Z,2.17
2019-05-25T18:46:39.890Z,2.43
2019-05-25T18:49:09.595Z,2.77
2019-05-25T18:51:39.534Z,2.97
2019-05-25T18:54:09.306Z,2.43
2019-05-25T18:56:39.023Z,2.20
2019-05-25T18:59:08.915Z,2.80
2019-05-25T19:01:38.802Z,2.47
2019-05-25T19:04:08.843Z,2.60
2019-05-25T19:06:38.577Z,3.93
2019-05-25T19:09:08.638Z,3.47
2019-05-25T19:11:38.334Z,3.37
2019-05-25T19:14:08.321Z,3.53
2019-05-25T19:16:37.875Z,3.60
2019-05-25T19:19:07.479Z,4.73
2019-05-25T19:21:38.354Z,4.30
2019-05-25T19:24:08.926Z,4.20
2019-05-25T19:26:38.467Z,4.23
2019-05-25T19:29:08.311Z,4.40
2019-05-25T19:31:38.106Z,4.83
2019-05-25T19:34:07.935Z,4.80
2019-05-25T19:36:37.747Z,3.83
2019-05-25T19:39:08.186Z,4.00
2019-05-25T19:41:37.731Z,5.43
2019-05-25T19:44:07.359Z,4.47
2019-05-25T19:46:37.982Z,4.20
2019-05-25T19:49:07.624Z,4.97
2019-05-25T19:51:37.574Z,4.17
2019-05-25T19:54:07.206Z,4.07
2019-05-25T19:56:36.945Z,3.40
2019-05-25T19:59:06.527Z,5.83
2019-05-25T20:01:36.219Z,4.47
2019-05-25T20:04:05.948Z,3.90
2019-05-25T20:06:35.667Z,4.33
2019-05-25T20:09:06.651Z,3.30
2019-05-25T20:11:36.539Z,5.67
2019-05-25T20:14:06.516Z,5.73
2019-05-25T20:16:36.081Z,5.50
2019-05-25T20:19:05.617Z,4.90
2019-05-25T20:21:35.254Z,5.27
2019-05-25T20:24:04.827Z,5.33
2019-05-25T20:26:34.590Z,5.07
2019-05-25T20:29:04.143Z,4.33
2019-05-25T20:31:33.742Z,4.80
2019-05-25T20:34:03.762Z,4.83
2019-05-25T20:36:33.314Z,5.00
2019-05-25T20:39:02.894Z,5.63
2019-05-25T20:41:32.925Z,4.80
2019-05-25T20:44:02.460Z,5.30
2019-05-25T20:46:32.058Z,5.70
2019-05-25T20:49:01.650Z,8.87
2019-05-25T20:51:31.767Z,6.13
2019-05-25T20:54:01.423Z,5.57
2019-05-25T20:56:31.081Z,5.83
2019-05-25T20:59:01.682Z,5.90
2019-05-25T21:01:31.220Z,5.43
2019-05-25T21:04:00.777Z,6.63
2019-05-25T21:06:30.963Z,6.00
2019-05-25T21:09:00.520Z,6.33
2019-05-25T21:11:30.087Z,5.33
2019-05-25T21:13:59.908Z,5.40
2019-05-25T21:16:29.467Z,5.83
2019-05-25T21:19:02.870Z,5.50
2019-05-25T21:21:30.594Z,5.00
2019-05-25T21:24:00.132Z,6.13
2019-05-25T21:26:29.670Z,5.80
2019-05-25T21:28:59.191Z,6.33
2019-05-25T21:31:30.767Z,5.83
2019-05-25T21:34:01.937Z,5.47
2019-05-25T21:36:32.515Z,5.57
2019-05-25T21:39:02.086Z,6.17
2019-05-25T21:41:33.101Z,6.20
2019-05-25T21:44:02.636Z,6.17
2019-05-25T21:46:32.482Z,6.60
2019-05-25T21:49:02.417Z,6.83
2019-05-25T21:51:32.179Z,6.70
2019-05-25T21:54:02.118Z,6.70
2019-05-25T21:56:31.721Z,6.70
2019-05-25T21:59:01.360Z,6.90
2019-05-25T22:01:30.983Z,7.33
2019-05-25T22:04:00.801Z,12.03
2019-05-25T22:06:30.324Z,7.90
2019-05-25T22:09:00.116Z,7.83
2019-05-25T22:11:31.412Z,7.63
2019-05-25T22:14:00.922Z,6.60
2019-05-25T22:16:30.770Z,6.63
2019-05-25T22:19:00.544Z,6.53
2019-05-25T22:21:30.119Z,6.90
2019-05-25T22:23:59.661Z,6.43
2019-05-25T22:26:29.241Z,6.87
2019-05-25T22:28:58.929Z,6.70
2019-05-25T22:31:28.546Z,28.13
2019-05-25T22:33:59.398Z,7.33
2019-05-25T22:36:39.824Z,5.17
2019-05-25T22:39:00.618Z,5.30
2019-05-25T22:41:31.091Z,4.70
2019-05-25T22:44:00.964Z,4.57
2019-05-25T22:46:30.552Z,4.77
2019-05-25T22:49:00.255Z,4.10
2019-05-25T22:51:29.883Z,3.80
2019-05-25T22:54:02.950Z,4.37
2019-05-25T22:56:48.473Z,3.50
2019-05-25T22:59:19.506Z,4.40
2019-05-25T23:01:52.473Z,4.53
2019-05-25T23:04:23.777Z,4.97
2019-05-25T23:06:58.327Z,5.53
2019-05-25T23:09:24.638Z,5.10
2019-05-25T23:11:54.453Z,5.33
2019-05-25T23:14:24.291Z,4.70
2019-05-25T23:16:54.208Z,4.40
2019-05-25T23:19:23.850Z,4.70
2019-05-25T23:21:53.691Z,5.30
2019-05-25T23:24:23.210Z,4.07
2019-05-25T23:26:53.053Z,4.10
2019-05-25T23:29:22.598Z,4.47
2019-05-25T23:31:52.150Z,4.13
2019-05-25T23:34:21.678Z,4.50
2019-05-25T23:36:51.192Z,4.07
2019-05-25T23:39:21.026Z,5.00
2019-05-25T23:41:50.562Z,4.77
2019-05-25T23:44:20.099Z,5.13
2019-05-25T23:46:49.707Z,5.90
2019-05-25T23:49:26.978Z,4.30
2019-05-25T23:51:56.523Z,4.63
2019-05-25T23:54:26.075Z,4.70
2019-05-25T23:56:55.849Z,4.30
2019-05-25T23:59:25.389Z,4.23
